sensor_id;sensor_type;location;lat;lon;timestamp;temperature;humidity
33149;DHT22;19506;51.040;3.856;2022-09-20T14:30:31;20.60;99.90
33149;DHT22;19506;51.040;3.856;2022-09-20T14:32:58;20.50;99.90
33149;DHT22;19506;51.040;3.856;2022-09-20T14:35:24;20.40;99.90
33149;DHT22;19506;51.040;3.856;2022-09-20T14:37:57;20.40;99.90
33149;DHT22;19506;51.040;3.856;2022-09-20T14:43:00;20.40;99.90
33149;DHT22;19506;51.040;3.856;2022-09-20T14:45:33;20.30;99.90
33149;DHT22;19506;51.040;3.856;2022-09-20T14:50:44;20.20;99.90
33149;DHT22;19506;51.040;3.856;2022-09-20T14:55:52;20.30;99.90
33149;DHT22;19506;51.040;3.856;2022-09-20T14:58:19;20.50;99.90
33149;DHT22;19506;51.040;3.856;2022-09-20T15:03:14;20.30;99.90
33149;DHT22;19506;51.040;3.856;2022-09-20T15:05:41;20.20;99.90
33149;DHT22;19506;51.040;3.856;2022-09-20T15:08:11;20.20;99.90
33149;DHT22;19506;51.040;3.856;2022-09-20T15:10:37;20.20;99.90
33149;DHT22;19506;51.040;3.856;2022-09-20T15:13:03;20.30;99.90
33149;DHT22;19506;51.040;3.856;2022-09-20T15:15:28;20.10;99.90
33149;DHT22;19506;51.040;3.856;2022-09-20T15:17:54;20.10;99.90
33149;DHT22;19506;51.040;3.856;2022-09-20T15:20:20;20.30;99.90
33149;DHT22;19506;51.040;3.856;2022-09-20T15:22:47;20.30;99.90
33149;DHT22;19506;51.040;3.856;2022-09-20T15:25:16;20.40;99.90
33149;DHT22;19506;51.040;3.856;2022-09-20T15:27:43;20.30;99.90
33149;DHT22;19506;51.040;3.856;2022-09-20T15:30:11;20.20;99.90
33149;DHT22;19506;51.040;3.856;2022-09-20T15:32:38;20.10;99.90
33149;DHT22;19506;51.040;3.856;2022-09-20T15:35:05;20.00;99.90
33149;DHT22;19506;51.040;3.856;2022-09-20T15:37:30;20.00;99.90
33149;DHT22;19506;51.040;3.856;2022-09-20T15:39:56;19.90;99.90
33149;DHT22;19506;51.040;3.856;2022-09-20T15:42:22;19.90;99.90
33149;DHT22;19506;51.040;3.856;2022-09-20T15:44:48;20.00;99.90
33149;DHT22;19506;51.040;3.856;2022-09-20T15:47:17;20.10;99.90
33149;DHT22;19506;51.040;3.856;2022-09-20T15:49:43;20.10;99.90
33149;DHT22;19506;51.040;3.856;2022-09-20T15:52:14;20.10;99.90
33149;DHT22;19506;51.040;3.856;2022-09-20T15:54:40;20.00;99.90
33149;DHT22;19506;51.040;3.856;2022-09-20T15:57:05;20.00;99.90
33149;DHT22;19506;51.040;3.856;2022-09-20T15:59:31;19.80;99.90
33149;DHT22;19506;51.040;3.856;2022-09-20T16:02:00;19.80;99.90
33149;DHT22;19506;51.040;3.856;2022-09-20T16:04:26;19.90;99.90
33149;DHT22;19506;51.040;3.856;2022-09-20T16:06:52;19.90;99.90
33149;DHT22;19506;51.040;3.856;2022-09-20T16:09:19;19.80;99.90
33149;DHT22;19506;51.040;3.856;2022-09-20T16:11:46;19.80;99.90
33149;DHT22;19506;51.040;3.856;2022-09-20T16:14:12;19.80;99.90
33149;DHT22;19506;51.040;3.856;2022-09-20T16:16:38;19.70;99.90
33149;DHT22;19506;51.040;3.856;2022-09-20T16:19:04;19.70;99.90
33149;DHT22;19506;51.040;3.856;2022-09-20T16:21:43;19.60;99.90
33149;DHT22;19506;51.040;3.856;2022-09-20T16:24:09;19.60;99.90
33149;DHT22;19506;51.040;3.856;2022-09-20T16:26:37;19.70;99.90
33149;DHT22;19506;51.040;3.856;2022-09-20T16:29:03;19.70;99.90
33149;DHT22;19506;51.040;3.856;2022-09-20T16:31:35;19.80;99.90
33149;DHT22;19506;51.040;3.856;2022-09-20T16:34:18;19.80;99.90
33149;DHT22;19506;51.040;3.856;2022-09-20T16:36:51;19.80;99.90
33149;DHT22;19506;51.040;3.856;2022-09-20T16:39:19;19.90;99.90
33149;DHT22;19506;51.040;3.856;2022-09-20T16:41:46;19.90;99.90
33149;DHT22;19506;51.040;3.856;2022-09-20T16:44:13;19.90;99.90
33149;DHT22;19506;51.040;3.856;2022-09-20T16:46:39;20.00;99.90
33149;DHT22;19506;51.040;3.856;2022-09-20T16:49:06;20.00;99.90
33149;DHT22;19506;51.040;3.856;2022-09-20T16:51:40;20.00;99.90
33149;DHT22;19506;51.040;3.856;2022-09-20T16:54:09;20.10;99.90
33149;DHT22;19506;51.040;3.856;2022-09-20T16:56:40;20.10;99.90
33149;DHT22;19506;51.040;3.856;2022-09-20T16:59:07;20.10;99.90
33149;DHT22;19506;51.040;3.856;2022-09-20T17:01:33;20.10;99.90
33149;DHT22;19506;51.040;3.856;2022-09-20T17:04:01;20.10;99.90
33149;DHT22;19506;51.040;3.856;2022-09-20T17:06:29;20.10;99.90
33149;DHT22;19506;51.040;3.856;2022-09-20T17:08:55;20.10;99.90
33149;DHT22;19506;51.040;3.856;2022-09-20T17:11:24;20.20;99.90
33149;DHT22;19506;51.040;3.856;2022-09-20T17:13:51;20.20;99.90
33149;DHT22;19506;51.040;3.856;2022-09-20T17:16:23;20.20;99.90
33149;DHT22;19506;51.040;3.856;2022-09-20T17:19:09;20.10;99.90
33149;DHT22;19506;51.040;3.856;2022-09-20T17:21:37;20.10;99.90
33149;DHT22;19506;51.040;3.856;2022-09-20T17:24:04;20.10;99.90
33149;DHT22;19506;51.040;3.856;2022-09-20T17:26:34;20.10;99.90
33149;DHT22;19506;51.040;3.856;2022-09-20T17:29:03;20.10;99.90
33149;DHT22;19506;51.040;3.856;2022-09-20T17:31:32;20.10;99.90
33149;DHT22;19506;51.040;3.856;2022-09-20T17:34:03;20.10;99.90
33149;DHT22;19506;51.040;3.856;2022-09-20T17:36:41;20.10;99.90
33149;DHT22;19506;51.040;3.856;2022-09-20T17:39:07;20.10;99.90
33149;DHT22;19506;51.040;3.856;2022-09-20T17:41:39;20.10;99.90
33149;DHT22;19506;51.040;3.856;2022-09-20T17:44:05;20.00;99.90
33149;DHT22;19506;51.040;3.856;2022-09-20T17:46:52;20.00;99.90
33149;DHT22;19506;51.040;3.856;2022-09-20T17:49:22;20.00;99.90
33149;DHT22;19506;51.040;3.856;2022-09-20T17:51:52;20.00;99.90
33149;DHT22;19506;51.040;3.856;2022-09-20T17:54:19;20.00;99.90
33149;DHT22;19506;51.040;3.856;2022-09-20T17:56:47;20.00;99.90
33149;DHT22;19506;51.040;3.856;2022-09-20T17:59:14;19.90;99.90
33149;DHT22;19506;51.040;3.856;2022-09-20T18:01:44;19.90;99.90
33149;DHT22;19506;51.040;3.856;2022-09-20T18:04:11;19.90;99.90
33149;DHT22;19506;51.040;3.856;2022-09-20T18:09:08;19.80;99.90
33149;DHT22;19506;51.040;3.856;2022-09-20T18:11:43;19.80;99.90
33149;DHT22;19506;51.040;3.856;2022-09-20T18:14:15;19.90;99.90
33149;DHT22;19506;51.040;3.856;2022-09-20T18:16:41;19.80;99.90
33149;DHT22;19506;51.040;3.856;2022-09-20T18:19:10;19.80;99.90
33149;DHT22;19506;51.040;3.856;2022-09-20T18:21:37;19.80;99.90
33149;DHT22;19506;51.040;3.856;2022-09-20T18:24:07;19.80;99.90
33149;DHT22;19506;51.040;3.856;2022-09-20T18:26:35;19.70;99.90
33149;DHT22;19506;51.040;3.856;2022-09-20T18:29:12;19.80;99.90
33149;DHT22;19506;51.040;3.856;2022-09-20T18:31:47;19.70;99.90
33149;DHT22;19506;51.040;3.856;2022-09-20T18:34:18;19.70;99.90
33149;DHT22;19506;51.040;3.856;2022-09-20T18:36:46;19.70;99.90
33149;DHT22;19506;51.040;3.856;2022-09-20T18:39:19;19.70;99.90
33149;DHT22;19506;51.040;3.856;2022-09-20T18:41:45;19.70;99.90
33149;DHT22;19506;51.040;3.856;2022-09-20T18:44:14;19.70;99.90
33149;DHT22;19506;51.040;3.856;2022-09-20T18:46:39;19.70;99.90
33149;DHT22;19506;51.040;3.856;2022-09-20T18:49:07;19.70;99.90
33149;DHT22;19506;51.040;3.856;2022-09-20T18:51:34;19.70;99.90
33149;DHT22;19506;51.040;3.856;2022-09-20T18:53:59;19.70;99.90
33149;DHT22;19506;51.040;3.856;2022-09-20T18:56:30;19.70;99.90
33149;DHT22;19506;51.040;3.856;2022-09-20T18:59:17;19.70;99.90
33149;DHT22;19506;51.040;3.856;2022-09-20T19:12:46;19.80;99.90
33149;DHT22;19506;51.040;3.856;2022-09-20T19:24:14;19.90;99.90
33149;DHT22;19506;51.040;3.856;2022-09-20T19:26:41;19.90;99.90
33149;DHT22;19506;51.040;3.856;2022-09-20T19:29:21;19.90;99.90
33149;DHT22;19506;51.040;3.856;2022-09-20T19:31:51;19.90;99.90
33149;DHT22;19506;51.040;3.856;2022-09-20T19:34:26;19.90;99.90
33149;DHT22;19506;51.040;3.856;2022-09-20T19:37:07;20.00;99.90
33149;DHT22;19506;51.040;3.856;2022-09-20T19:46:16;20.00;99.90
33149;DHT22;19506;51.040;3.856;2022-09-20T19:49:07;20.00;99.90
33149;DHT22;19506;51.040;3.856;2022-09-20T19:51:40;20.00;99.90
33149;DHT22;19506;51.040;3.856;2022-09-20T19:54:09;20.00;99.90
33149;DHT22;19506;51.040;3.856;2022-09-20T19:56:56;20.00;99.90
33149;DHT22;19506;51.040;3.856;2022-09-20T19:59:25;20.00;99.90
33149;DHT22;19506;51.040;3.856;2022-09-20T20:01:52;20.00;99.90
